sensor_id;sensor_type;location;lat;lon;timestamp;P1;durP1;ratioP1;P2;durP2;ratioP2
7493;SDS011;3788;49.902;8.590;2023-03-14T00:02:30;2.77;;;1.70;;
7493;SDS011;3788;49.902;8.590;2023-03-14T00:04:57;1.63;;;1.50;;
7493;SDS011;3788;49.902;8.590;2023-03-14T00:07:23;1.60;;;1.00;;
7493;SDS011;3788;49.902;8.590;2023-03-14T00:09:50;1.50;;;1.27;;
7493;SDS011;3788;49.902;8.590;2023-03-14T00:12:18;2.20;;;1.00;;
7493;SDS011;3788;49.902;8.590;2023-03-14T00:14:45;1.30;;;1.20;;
7493;SDS011;3788;49.902;8.590;2023-03-14T00:17:12;1.17;;;1.07;;
7493;SDS011;3788;49.902;8.590;2023-03-14T00:19:38;1.27;;;1.03;;
7493;SDS011;3788;49.902;8.590;2023-03-14T00:22:05;1.63;;;1.20;;
7493;SDS011;3788;49.902;8.590;2023-03-14T00:24:32;3.73;;;1.03;;
7493;SDS011;3788;49.902;8.590;2023-03-14T00:26:59;1.53;;;1.10;;
7493;SDS011;3788;49.902;8.590;2023-03-14T00:29:27;1.47;;;1.20;;
7493;SDS011;3788;49.902;8.590;2023-03-14T00:31:53;1.17;;;1.07;;
7493;SDS011;3788;49.902;8.590;2023-03-14T00:34:20;1.63;;;1.50;;
7493;SDS011;3788;49.902;8.590;2023-03-14T00:36:47;0.90;;;0.80;;
7493;SDS011;3788;49.902;8.590;2023-03-14T00:39:13;1.20;;;1.00;;
7493;SDS011;3788;49.902;8.590;2023-03-14T00:41:40;1.37;;;0.90;;
7493;SDS011;3788;49.902;8.590;2023-03-14T00:44:07;1.57;;;1.47;;
7493;SDS011;3788;49.902;8.590;2023-03-14T00:46:35;2.60;;;1.13;;
7493;SDS011;3788;49.902;8.590;2023-03-14T00:49:01;1.57;;;1.00;;
7493;SDS011;3788;49.902;8.590;2023-03-14T00:51:28;0.87;;;0.87;;
7493;SDS011;3788;49.902;8.590;2023-03-14T00:53:55;1.90;;;1.33;;
7493;SDS011;3788;49.902;8.590;2023-03-14T00:56:21;1.60;;;1.00;;
7493;SDS011;3788;49.902;8.590;2023-03-14T00:58:48;3.10;;;1.07;;
7493;SDS011;3788;49.902;8.590;2023-03-14T01:01:15;1.63;;;1.00;;
7493;SDS011;3788;49.902;8.590;2023-03-14T01:03:45;1.40;;;0.93;;
7493;SDS011;3788;49.902;8.590;2023-03-14T01:06:14;1.93;;;1.10;;
7493;SDS011;3788;49.902;8.590;2023-03-14T01:08:42;0.90;;;0.90;;
7493;SDS011;3788;49.902;8.590;2023-03-14T01:11:09;1.23;;;0.90;;
7493;SDS011;3788;49.902;8.590;2023-03-14T01:13:38;1.97;;;1.10;;
7493;SDS011;3788;49.902;8.590;2023-03-14T01:16:06;3.43;;;1.20;;
7493;SDS011;3788;49.902;8.590;2023-03-14T01:18:34;2.30;;;1.00;;
7493;SDS011;3788;49.902;8.590;2023-03-14T01:21:03;1.77;;;1.00;;
7493;SDS011;3788;49.902;8.590;2023-03-14T01:23:30;0.93;;;0.90;;
7493;SDS011;3788;49.902;8.590;2023-03-14T01:25:56;1.70;;;1.00;;
7493;SDS011;3788;49.902;8.590;2023-03-14T01:28:23;2.33;;;1.23;;
7493;SDS011;3788;49.902;8.590;2023-03-14T01:30:50;4.47;;;1.80;;
7493;SDS011;3788;49.902;8.590;2023-03-14T01:33:17;3.97;;;1.00;;
7493;SDS011;3788;49.902;8.590;2023-03-14T01:35:43;2.03;;;1.20;;
7493;SDS011;3788;49.902;8.590;2023-03-14T01:38:12;2.07;;;1.10;;
7493;SDS011;3788;49.902;8.590;2023-03-14T01:40:42;3.23;;;1.13;;
7493;SDS011;3788;49.902;8.590;2023-03-14T01:43:14;1.43;;;0.93;;
7493;SDS011;3788;49.902;8.590;2023-03-14T01:48:47;1.33;;;1.10;;
7493;SDS011;3788;49.902;8.590;2023-03-14T01:51:19;3.30;;;1.00;;
7493;SDS011;3788;49.902;8.590;2023-03-14T01:53:53;1.40;;;1.07;;
7493;SDS011;3788;49.902;8.590;2023-03-14T01:56:24;5.03;;;1.30;;
7493;SDS011;3788;49.902;8.590;2023-03-14T01:58:52;3.60;;;1.20;;
7493;SDS011;3788;49.902;8.590;2023-03-14T02:01:20;2.60;;;1.10;;
7493;SDS011;3788;49.902;8.590;2023-03-14T02:03:50;1.77;;;1.10;;
7493;SDS011;3788;49.902;8.590;2023-03-14T02:06:21;3.93;;;1.20;;
7493;SDS011;3788;49.902;8.590;2023-03-14T02:08:52;1.83;;;1.07;;
7493;SDS011;3788;49.902;8.590;2023-03-14T02:11:19;1.70;;;1.07;;
7493;SDS011;3788;49.902;8.590;2023-03-14T02:13:46;1.63;;;1.03;;
7493;SDS011;3788;49.902;8.590;2023-03-14T02:16:14;2.47;;;1.53;;
7493;SDS011;3788;49.902;8.590;2023-03-14T02:18:41;4.80;;;1.10;;
7493;SDS011;3788;49.902;8.590;2023-03-14T02:21:09;2.47;;;1.00;;
7493;SDS011;3788;49.902;8.590;2023-03-14T02:23:43;2.73;;;0.90;;
7493;SDS011;3788;49.902;8.590;2023-03-14T02:26:20;3.37;;;1.30;;
7493;SDS011;3788;49.902;8.590;2023-03-14T02:28:52;1.03;;;1.00;;
7493;SDS011;3788;49.902;8.590;2023-03-14T02:31:19;1.50;;;0.90;;
7493;SDS011;3788;49.902;8.590;2023-03-14T02:33:48;1.50;;;1.00;;
7493;SDS011;3788;49.902;8.590;2023-03-14T02:36:15;2.53;;;1.10;;
7493;SDS011;3788;49.902;8.590;2023-03-14T02:38:45;2.10;;;1.10;;
7493;SDS011;3788;49.902;8.590;2023-03-14T02:41:16;2.67;;;1.17;;
7493;SDS011;3788;49.902;8.590;2023-03-14T02:43:42;2.47;;;1.20;;
7493;SDS011;3788;49.902;8.590;2023-03-14T02:46:12;1.27;;;1.10;;
7493;SDS011;3788;49.902;8.590;2023-03-14T02:48:41;2.27;;;1.17;;
7493;SDS011;3788;49.902;8.590;2023-03-14T02:51:12;2.00;;;1.03;;
7493;SDS011;3788;49.902;8.590;2023-03-14T02:53:40;2.10;;;1.10;;
7493;SDS011;3788;49.902;8.590;2023-03-14T02:56:08;3.13;;;1.07;;
7493;SDS011;3788;49.902;8.590;2023-03-14T02:58:35;1.57;;;1.20;;
7493;SDS011;3788;49.902;8.590;2023-03-14T03:01:02;4.07;;;1.00;;
7493;SDS011;3788;49.902;8.590;2023-03-14T03:03:31;4.20;;;1.30;;
7493;SDS011;3788;49.902;8.590;2023-03-14T03:05:58;1.90;;;1.10;;
7493;SDS011;3788;49.902;8.590;2023-03-14T03:08:25;2.90;;;1.03;;
7493;SDS011;3788;49.902;8.590;2023-03-14T03:10:53;2.20;;;1.10;;
7493;SDS011;3788;49.902;8.590;2023-03-14T03:13:20;1.13;;;1.03;;
7493;SDS011;3788;49.902;8.590;2023-03-14T03:15:47;1.87;;;1.53;;
7493;SDS011;3788;49.902;8.590;2023-03-14T03:18:14;3.23;;;1.20;;
7493;SDS011;3788;49.902;8.590;2023-03-14T03:20:42;2.40;;;1.27;;
7493;SDS011;3788;49.902;8.590;2023-03-14T03:23:10;1.30;;;1.10;;
7493;SDS011;3788;49.902;8.590;2023-03-14T03:25:37;2.47;;;1.30;;
7493;SDS011;3788;49.902;8.590;2023-03-14T03:28:04;2.83;;;1.10;;
7493;SDS011;3788;49.902;8.590;2023-03-14T03:30:32;1.53;;;1.03;;
7493;SDS011;3788;49.902;8.590;2023-03-14T03:33:00;2.00;;;1.00;;
7493;SDS011;3788;49.902;8.590;2023-03-14T03:35:26;2.20;;;1.20;;
7493;SDS011;3788;49.902;8.590;2023-03-14T03:37:54;1.97;;;1.20;;
7493;SDS011;3788;49.902;8.590;2023-03-14T03:40:21;3.03;;;1.20;;
7493;SDS011;3788;49.902;8.590;2023-03-14T03:42:48;3.77;;;1.00;;
7493;SDS011;3788;49.902;8.590;2023-03-14T03:45:14;1.53;;;1.10;;
7493;SDS011;3788;49.902;8.590;2023-03-14T03:47:41;3.60;;;1.53;;
7493;SDS011;3788;49.902;8.590;2023-03-14T03:50:08;3.07;;;1.10;;
7493;SDS011;3788;49.902;8.590;2023-03-14T03:52:36;3.30;;;1.10;;
7493;SDS011;3788;49.902;8.590;2023-03-14T03:55:04;1.30;;;0.97;;
7493;SDS011;3788;49.902;8.590;2023-03-14T03:57:31;1.70;;;1.40;;
7493;SDS011;3788;49.902;8.590;2023-03-14T03:59:58;2.77;;;1.13;;
7493;SDS011;3788;49.902;8.590;2023-03-14T04:02:24;2.90;;;1.27;;
7493;SDS011;3788;49.902;8.590;2023-03-14T04:04:51;2.57;;;1.00;;
7493;SDS011;3788;49.902;8.590;2023-03-14T04:07:18;2.33;;;1.60;;
7493;SDS011;3788;49.902;8.590;2023-03-14T04:09:45;2.73;;;1.10;;
7493;SDS011;3788;49.902;8.590;2023-03-14T04:12:13;3.03;;;1.27;;
7493;SDS011;3788;49.902;8.590;2023-03-14T04:14:40;5.10;;;1.40;;
7493;SDS011;3788;49.902;8.590;2023-03-14T04:17:07;3.07;;;1.33;;
7493;SDS011;3788;49.902;8.590;2023-03-14T04:19:33;3.37;;;1.40;;
7493;SDS011;3788;49.902;8.590;2023-03-14T04:22:00;2.60;;;1.30;;
7493;SDS011;3788;49.902;8.590;2023-03-14T04:24:27;3.07;;;1.17;;
7493;SDS011;3788;49.902;8.590;2023-03-14T04:26:54;4.50;;;1.20;;
7493;SDS011;3788;49.902;8.590;2023-03-14T04:29:22;3.87;;;0.90;;
7493;SDS011;3788;49.902;8.590;2023-03-14T04:31:49;2.43;;;1.13;;
7493;SDS011;3788;49.902;8.590;2023-03-14T04:34:15;2.43;;;1.00;;
7493;SDS011;3788;49.902;8.590;2023-03-14T04:36:42;3.03;;;1.03;;
7493;SDS011;3788;49.902;8.590;2023-03-14T04:39:09;4.30;;;1.10;;
7493;SDS011;3788;49.902;8.590;2023-03-14T04:41:35;2.90;;;0.93;;
7493;SDS011;3788;49.902;8.590;2023-03-14T04:44:02;2.93;;;1.03;;
7493;SDS011;3788;49.902;8.590;2023-03-14T04:46:30;2.47;;;1.30;;
7493;SDS011;3788;49.902;8.590;2023-03-14T04:48:57;2.30;;;1.10;;
7493;SDS011;3788;49.902;8.590;2023-03-14T04:51:23;2.80;;;0.90;;
7493;SDS011;3788;49.902;8.590;2023-03-14T04:53:52;3.70;;;1.03;;
7493;SDS011;3788;49.902;8.590;2023-03-14T04:56:19;4.07;;;1.03;;
7493;SDS011;3788;49.902;8.590;2023-03-14T04:58:46;1.20;;;0.80;;
7493;SDS011;3788;49.902;8.590;2023-03-14T05:01:13;1.60;;;0.90;;
7493;SDS011;3788;49.902;8.590;2023-03-14T05:03:41;3.57;;;1.37;;
7493;SDS011;3788;49.902;8.590;2023-03-14T05:06:08;3.67;;;1.13;;
7493;SDS011;3788;49.902;8.590;2023-03-14T05:08:35;1.47;;;0.97;;
7493;SDS011;3788;49.902;8.590;2023-03-14T05:11:01;2.60;;;1.00;;
7493;SDS011;3788;49.902;8.590;2023-03-14T05:13:28;2.50;;;1.23;;
7493;SDS011;3788;49.902;8.590;2023-03-14T05:16:02;1.17;;;0.80;;
7493;SDS011;3788;49.902;8.590;2023-03-14T05:18:30;2.23;;;1.00;;
7493;SDS011;3788;49.902;8.590;2023-03-14T05:20:58;1.57;;;1.20;;
7493;SDS011;3788;49.902;8.590;2023-03-14T05:23:25;2.03;;;0.97;;
7493;SDS011;3788;49.902;8.590;2023-03-14T05:25:52;1.90;;;1.00;;
7493;SDS011;3788;49.902;8.590;2023-03-14T05:28:18;2.37;;;1.93;;
7493;SDS011;3788;49.902;8.590;2023-03-14T05:30:45;1.80;;;1.10;;
7493;SDS011;3788;49.902;8.590;2023-03-14T05:33:12;2.53;;;1.00;;
7493;SDS011;3788;49.902;8.590;2023-03-14T05:35:39;3.20;;;1.10;;
7493;SDS011;3788;49.902;8.590;2023-03-14T05:38:07;1.50;;;1.00;;
7493;SDS011;3788;49.902;8.590;2023-03-14T05:40:34;2.73;;;1.33;;
7493;SDS011;3788;49.902;8.590;2023-03-14T05:43:01;1.40;;;1.00;;
7493;SDS011;3788;49.902;8.590;2023-03-14T05:45:28;3.83;;;1.40;;
7493;SDS011;3788;49.902;8.590;2023-03-14T05:47:54;4.37;;;1.27;;
7493;SDS011;3788;49.902;8.590;2023-03-14T05:50:21;3.57;;;1.10;;
7493;SDS011;3788;49.902;8.590;2023-03-14T05:52:48;2.27;;;1.20;;
7493;SDS011;3788;49.902;8.590;2023-03-14T05:55:16;1.37;;;1.07;;
7493;SDS011;3788;49.902;8.590;2023-03-14T05:57:43;1.77;;;1.17;;
7493;SDS011;3788;49.902;8.590;2023-03-14T06:00:10;1.87;;;1.20;;
7493;SDS011;3788;49.902;8.590;2023-03-14T06:02:37;4.57;;;1.93;;
7493;SDS011;3788;49.902;8.590;2023-03-14T06:05:05;5.03;;;1.90;;
7493;SDS011;3788;49.902;8.590;2023-03-14T06:07:33;3.93;;;1.40;;
7493;SDS011;3788;49.902;8.590;2023-03-14T06:09:59;2.63;;;1.53;;
7493;SDS011;3788;49.902;8.590;2023-03-14T06:12:27;3.50;;;1.30;;
7493;SDS011;3788;49.902;8.590;2023-03-14T06:14:54;3.42;;;1.35;;
7493;SDS011;3788;49.902;8.590;2023-03-14T06:17:21;2.60;;;1.23;;
7493;SDS011;3788;49.902;8.590;2023-03-14T06:19:47;2.73;;;0.97;;
7493;SDS011;3788;49.902;8.590;2023-03-14T06:22:14;2.70;;;1.57;;
7493;SDS011;3788;49.902;8.590;2023-03-14T06:24:41;3.60;;;1.43;;
7493;SDS011;3788;49.902;8.590;2023-03-14T06:27:08;3.27;;;1.60;;
7493;SDS011;3788;49.902;8.590;2023-03-14T06:29:36;4.40;;;1.40;;
7493;SDS011;3788;49.902;8.590;2023-03-14T06:32:03;1.37;;;1.17;;
7493;SDS011;3788;49.902;8.590;2023-03-14T06:34:30;1.30;;;1.13;;
7493;SDS011;3788;49.902;8.590;2023-03-14T06:36:57;3.70;;;1.20;;
7493;SDS011;3788;49.902;8.590;2023-03-14T06:39:24;5.17;;;2.40;;
7493;SDS011;3788;49.902;8.590;2023-03-14T06:41:51;3.10;;;1.30;;
7493;SDS011;3788;49.902;8.590;2023-03-14T06:44:18;3.90;;;1.50;;
7493;SDS011;3788;49.902;8.590;2023-03-14T06:46:46;3.20;;;1.60;;
7493;SDS011;3788;49.902;8.590;2023-03-14T06:49:13;5.40;;;1.07;;
7493;SDS011;3788;49.902;8.590;2023-03-14T06:51:39;3.73;;;1.63;;
7493;SDS011;3788;49.902;8.590;2023-03-14T06:54:06;3.80;;;1.30;;
7493;SDS011;3788;49.902;8.590;2023-03-14T06:56:33;2.33;;;1.10;;
7493;SDS011;3788;49.902;8.590;2023-03-14T06:59:00;2.50;;;1.03;;
7493;SDS011;3788;49.902;8.590;2023-03-14T07:01:27;3.40;;;0.93;;
7493;SDS011;3788;49.902;8.590;2023-03-14T07:03:57;3.00;;;1.20;;
7493;SDS011;3788;49.902;8.590;2023-03-14T07:06:23;4.40;;;1.40;;
7493;SDS011;3788;49.902;8.590;2023-03-14T07:08:50;2.30;;;0.90;;
7493;SDS011;3788;49.902;8.590;2023-03-14T07:11:17;3.47;;;1.70;;
7493;SDS011;3788;49.902;8.590;2023-03-14T07:13:43;1.80;;;1.27;;
7493;SDS011;3788;49.902;8.590;2023-03-14T07:16:10;2.57;;;1.30;;
7493;SDS011;3788;49.902;8.590;2023-03-14T07:18:37;2.13;;;0.97;;
7493;SDS011;3788;49.902;8.590;2023-03-14T07:21:05;4.17;;;0.93;;
7493;SDS011;3788;49.902;8.590;2023-03-14T07:23:34;1.70;;;1.17;;
7493;SDS011;3788;49.902;8.590;2023-03-14T07:26:01;4.07;;;1.20;;
7493;SDS011;3788;49.902;8.590;2023-03-14T07:28:27;2.20;;;0.90;;
7493;SDS011;3788;49.902;8.590;2023-03-14T07:30:54;1.97;;;0.80;;
7493;SDS011;3788;49.902;8.590;2023-03-14T07:33:21;1.70;;;0.87;;
7493;SDS011;3788;49.902;8.590;2023-03-14T07:35:48;2.30;;;0.90;;
7493;SDS011;3788;49.902;8.590;2023-03-14T07:38:17;2.40;;;1.07;;
7493;SDS011;3788;49.902;8.590;2023-03-14T07:40:44;2.30;;;0.70;;
7493;SDS011;3788;49.902;8.590;2023-03-14T07:43:10;3.03;;;0.87;;
7493;SDS011;3788;49.902;8.590;2023-03-14T07:45:37;2.23;;;1.10;;
7493;SDS011;3788;49.902;8.590;2023-03-14T07:48:04;3.20;;;0.90;;
7493;SDS011;3788;49.902;8.590;2023-03-14T07:50:31;1.67;;;0.83;;
7493;SDS011;3788;49.902;8.590;2023-03-14T07:52:57;2.93;;;0.93;;
7493;SDS011;3788;49.902;8.590;2023-03-14T07:55:25;2.07;;;0.90;;
7493;SDS011;3788;49.902;8.590;2023-03-14T07:57:52;2.10;;;1.00;;
7493;SDS011;3788;49.902;8.590;2023-03-14T08:00:19;2.30;;;0.90;;
7493;SDS011;3788;49.902;8.590;2023-03-14T08:02:46;1.10;;;0.70;;
7493;SDS011;3788;49.902;8.590;2023-03-14T08:05:13;2.70;;;1.17;;
7493;SDS011;3788;49.902;8.590;2023-03-14T08:07:39;1.90;;;0.87;;
7493;SDS011;3788;49.902;8.590;2023-03-14T08:10:06;1.33;;;0.90;;
7493;SDS011;3788;49.902;8.590;2023-03-14T08:12:35;2.03;;;0.73;;
7493;SDS011;3788;49.902;8.590;2023-03-14T08:15:03;2.00;;;0.80;;
7493;SDS011;3788;49.902;8.590;2023-03-14T08:17:30;0.93;;;0.67;;
7493;SDS011;3788;49.902;8.590;2023-03-14T08:19:57;1.30;;;0.70;;
7493;SDS011;3788;49.902;8.590;2023-03-14T08:22:23;1.53;;;0.73;;
7493;SDS011;3788;49.902;8.590;2023-03-14T08:24:50;0.70;;;0.70;;
7493;SDS011;3788;49.902;8.590;2023-03-14T08:27:16;1.30;;;0.70;;
7493;SDS011;3788;49.902;8.590;2023-03-14T08:29:44;1.43;;;0.77;;
7493;SDS011;3788;49.902;8.590;2023-03-14T08:32:11;0.53;;;0.53;;
7493;SDS011;3788;49.902;8.590;2023-03-14T08:34:38;0.70;;;0.70;;
7493;SDS011;3788;49.902;8.590;2023-03-14T08:37:05;0.70;;;0.70;;
7493;SDS011;3788;49.902;8.590;2023-03-14T08:39:31;2.80;;;1.20;;
7493;SDS011;3788;49.902;8.590;2023-03-14T08:41:58;0.93;;;0.60;;
7493;SDS011;3788;49.902;8.590;2023-03-14T08:44:25;0.93;;;0.80;;
7493;SDS011;3788;49.902;8.590;2023-03-14T08:46:53;1.30;;;0.60;;
7493;SDS011;3788;49.902;8.590;2023-03-14T08:49:20;1.30;;;0.60;;
7493;SDS011;3788;49.902;8.590;2023-03-14T08:51:47;1.50;;;0.67;;
7493;SDS011;3788;49.902;8.590;2023-03-14T08:54:14;1.87;;;0.77;;
7493;SDS011;3788;49.902;8.590;2023-03-14T08:56:40;0.70;;;0.50;;
7493;SDS011;3788;49.902;8.590;2023-03-14T08:59:07;2.67;;;0.70;;
7493;SDS011;3788;49.902;8.590;2023-03-14T09:01:35;2.77;;;0.70;;
7493;SDS011;3788;49.902;8.590;2023-03-14T09:04:03;0.70;;;0.70;;
7493;SDS011;3788;49.902;8.590;2023-03-14T09:06:31;0.77;;;0.50;;
7493;SDS011;3788;49.902;8.590;2023-03-14T09:08:58;0.90;;;0.57;;
7493;SDS011;3788;49.902;8.590;2023-03-14T09:11:25;0.50;;;0.50;;
7493;SDS011;3788;49.902;8.590;2023-03-14T09:13:51;0.60;;;0.60;;
7493;SDS011;3788;49.902;8.590;2023-03-14T09:16:18;1.23;;;0.67;;
7493;SDS011;3788;49.902;8.590;2023-03-14T09:18:45;0.40;;;0.40;;
7493;SDS011;3788;49.902;8.590;2023-03-14T09:21:13;0.93;;;0.50;;
7493;SDS011;3788;49.902;8.590;2023-03-14T09:23:40;2.23;;;0.80;;
7493;SDS011;3788;49.902;8.590;2023-03-14T09:26:07;1.30;;;1.10;;
7493;SDS011;3788;49.902;8.590;2023-03-14T09:28:34;0.57;;;0.57;;
7493;SDS011;3788;49.902;8.590;2023-03-14T09:31:05;0.60;;;0.60;;
7493;SDS011;3788;49.902;8.590;2023-03-14T09:33:32;0.50;;;0.50;;
7493;SDS011;3788;49.902;8.590;2023-03-14T09:35:59;1.13;;;0.83;;
7493;SDS011;3788;49.902;8.590;2023-03-14T09:38:27;2.03;;;1.00;;
7493;SDS011;3788;49.902;8.590;2023-03-14T09:40:54;1.13;;;0.70;;
7493;SDS011;3788;49.902;8.590;2023-03-14T09:43:23;1.37;;;0.67;;
7493;SDS011;3788;49.902;8.590;2023-03-14T09:45:51;1.67;;;0.80;;
7493;SDS011;3788;49.902;8.590;2023-03-14T09:48:19;0.53;;;0.50;;
7493;SDS011;3788;49.902;8.590;2023-03-14T09:50:48;1.37;;;0.80;;
7493;SDS011;3788;49.902;8.590;2023-03-14T09:53:17;1.70;;;0.60;;
7493;SDS011;3788;49.902;8.590;2023-03-14T09:55:48;1.23;;;0.60;;
7493;SDS011;3788;49.902;8.590;2023-03-14T09:58:17;0.90;;;0.90;;
7493;SDS011;3788;49.902;8.590;2023-03-14T10:00:46;1.30;;;0.53;;
7493;SDS011;3788;49.902;8.590;2023-03-14T10:03:21;0.63;;;0.60;;
7493;SDS011;3788;49.902;8.590;2023-03-14T10:05:51;0.50;;;0.50;;
7493;SDS011;3788;49.902;8.590;2023-03-14T10:08:18;0.73;;;0.60;;
7493;SDS011;3788;49.902;8.590;2023-03-14T10:10:45;0.60;;;0.60;;
7493;SDS011;3788;49.902;8.590;2023-03-14T10:13:15;0.67;;;0.60;;
7493;SDS011;3788;49.902;8.590;2023-03-14T10:15:46;0.60;;;0.60;;
7493;SDS011;3788;49.902;8.590;2023-03-14T10:18:14;0.50;;;0.50;;
7493;SDS011;3788;49.902;8.590;2023-03-14T10:20:42;0.50;;;0.50;;
7493;SDS011;3788;49.902;8.590;2023-03-14T10:23:18;0.40;;;0.40;;
7493;SDS011;3788;49.902;8.590;2023-03-14T10:25:58;0.60;;;0.60;;
7493;SDS011;3788;49.902;8.590;2023-03-14T10:28:30;1.20;;;0.60;;
7493;SDS011;3788;49.902;8.590;2023-03-14T10:30:58;0.40;;;0.40;;
7493;SDS011;3788;49.902;8.590;2023-03-14T10:33:26;0.60;;;0.60;;
7493;SDS011;3788;49.902;8.590;2023-03-14T10:35:55;1.07;;;0.97;;
7493;SDS011;3788;49.902;8.590;2023-03-14T10:38:23;0.60;;;0.60;;
7493;SDS011;3788;49.902;8.590;2023-03-14T10:40:53;1.53;;;0.60;;
7493;SDS011;3788;49.902;8.590;2023-03-14T10:43:22;0.50;;;0.50;;
7493;SDS011;3788;49.902;8.590;2023-03-14T10:45:54;0.50;;;0.50;;
7493;SDS011;3788;49.902;8.590;2023-03-14T10:48:24;0.50;;;0.50;;
7493;SDS011;3788;49.902;8.590;2023-03-14T10:50:56;0.73;;;0.60;;
7493;SDS011;3788;49.902;8.590;2023-03-14T10:53:29;0.40;;;0.40;;
7493;SDS011;3788;49.902;8.590;2023-03-14T10:56:02;0.90;;;0.70;;
7493;SDS011;3788;49.902;8.590;2023-03-14T10:58:30;0.60;;;0.60;;
7493;SDS011;3788;49.902;8.590;2023-03-14T11:01:07;0.50;;;0.50;;
7493;SDS011;3788;49.902;8.590;2023-03-14T11:03:43;2.07;;;0.60;;
7493;SDS011;3788;49.902;8.590;2023-03-14T11:06:18;0.50;;;0.50;;
7493;SDS011;3788;49.902;8.590;2023-03-14T11:08:51;0.70;;;0.50;;
7493;SDS011;3788;49.902;8.590;2023-03-14T11:11:23;0.60;;;0.60;;
7493;SDS011;3788;49.902;8.590;2023-03-14T11:13:55;1.10;;;0.80;;
7493;SDS011;3788;49.902;8.590;2023-03-14T11:16:32;0.70;;;0.57;;
7493;SDS011;3788;49.902;8.590;2023-03-14T11:19:13;0.50;;;0.50;;
7493;SDS011;3788;49.902;8.590;2023-03-14T11:21:52;0.57;;;0.57;;
7493;SDS011;3788;49.902;8.590;2023-03-14T11:24:31;0.57;;;0.57;;
7493;SDS011;3788;49.902;8.590;2023-03-14T11:27:07;0.60;;;0.60;;
7493;SDS011;3788;49.902;8.590;2023-03-14T11:29:42;0.93;;;0.70;;
7493;SDS011;3788;49.902;8.590;2023-03-14T11:32:22;1.40;;;0.60;;
7493;SDS011;3788;49.902;8.590;2023-03-14T11:34:56;0.60;;;0.60;;
7493;SDS011;3788;49.902;8.590;2023-03-14T11:37:31;0.50;;;0.50;;
7493;SDS011;3788;49.902;8.590;2023-03-14T11:40:02;0.60;;;0.60;;
7493;SDS011;3788;49.902;8.590;2023-03-14T11:42:34;0.53;;;0.50;;
7493;SDS011;3788;49.902;8.590;2023-03-14T11:45:02;0.50;;;0.50;;
7493;SDS011;3788;49.902;8.590;2023-03-14T11:47:31;0.63;;;0.63;;
7493;SDS011;3788;49.902;8.590;2023-03-14T11:50:02;0.70;;;0.70;;
7493;SDS011;3788;49.902;8.590;2023-03-14T11:52:32;0.67;;;0.67;;
7493;SDS011;3788;49.902;8.590;2023-03-14T11:55:05;0.67;;;0.67;;
7493;SDS011;3788;49.902;8.590;2023-03-14T11:57:39;0.50;;;0.50;;
7493;SDS011;3788;49.902;8.590;2023-03-14T12:00:12;1.53;;;0.67;;
7493;SDS011;3788;49.902;8.590;2023-03-14T12:02:45;1.33;;;0.70;;
7493;SDS011;3788;49.902;8.590;2023-03-14T12:08:18;1.60;;;1.50;;
7493;SDS011;3788;49.902;8.590;2023-03-14T12:10:59;0.40;;;0.40;;
7493;SDS011;3788;49.902;8.590;2023-03-14T12:13:28;0.50;;;0.50;;
7493;SDS011;3788;49.902;8.590;2023-03-14T12:15:59;0.50;;;0.50;;
7493;SDS011;3788;49.902;8.590;2023-03-14T12:18:29;1.23;;;0.50;;
7493;SDS011;3788;49.902;8.590;2023-03-14T12:20:58;0.40;;;0.40;;
7493;SDS011;3788;49.902;8.590;2023-03-14T12:23:27;0.40;;;0.40;;
7493;SDS011;3788;49.902;8.590;2023-03-14T12:26:06;0.30;;;0.30;;
7493;SDS011;3788;49.902;8.590;2023-03-14T12:28:39;0.40;;;0.40;;
7493;SDS011;3788;49.902;8.590;2023-03-14T12:34:28;0.50;;;0.50;;
7493;SDS011;3788;49.902;8.590;2023-03-14T12:37:10;0.40;;;0.40;;
7493;SDS011;3788;49.902;8.590;2023-03-14T12:39:45;0.50;;;0.50;;
7493;SDS011;3788;49.902;8.590;2023-03-14T12:42:22;0.43;;;0.43;;
7493;SDS011;3788;49.902;8.590;2023-03-14T12:45:14;0.50;;;0.50;;
7493;SDS011;3788;49.902;8.590;2023-03-14T12:47:50;0.40;;;0.40;;
7493;SDS011;3788;49.902;8.590;2023-03-14T12:50:43;0.40;;;0.40;;
7493;SDS011;3788;49.902;8.590;2023-03-14T12:56:20;0.53;;;0.53;;
7493;SDS011;3788;49.902;8.590;2023-03-14T12:58:54;0.50;;;0.50;;
7493;SDS011;3788;49.902;8.590;2023-03-14T13:01:33;0.60;;;0.60;;
7493;SDS011;3788;49.902;8.590;2023-03-14T13:04:02;0.40;;;0.40;;
7493;SDS011;3788;49.902;8.590;2023-03-14T13:06:46;0.40;;;0.40;;
7493;SDS011;3788;49.902;8.590;2023-03-14T13:12:18;0.50;;;0.50;;
7493;SDS011;3788;49.902;8.590;2023-03-14T13:14:52;0.53;;;0.50;;
7493;SDS011;3788;49.902;8.590;2023-03-14T13:17:22;0.40;;;0.40;;
7493;SDS011;3788;49.902;8.590;2023-03-14T13:19:52;0.80;;;0.60;;
7493;SDS011;3788;49.902;8.590;2023-03-14T13:22:25;0.50;;;0.50;;
7493;SDS011;3788;49.902;8.590;2023-03-14T13:24:59;0.43;;;0.43;;
7493;SDS011;3788;49.902;8.590;2023-03-14T13:27:27;0.60;;;0.60;;
7493;SDS011;3788;49.902;8.590;2023-03-14T13:29:56;0.60;;;0.60;;
7493;SDS011;3788;49.902;8.590;2023-03-14T13:32:25;0.60;;;0.60;;
7493;SDS011;3788;49.902;8.590;2023-03-14T13:34:55;0.60;;;0.60;;
7493;SDS011;3788;49.902;8.590;2023-03-14T13:37:23;0.60;;;0.60;;
7493;SDS011;3788;49.902;8.590;2023-03-14T13:39:53;0.50;;;0.50;;
7493;SDS011;3788;49.902;8.590;2023-03-14T13:42:21;0.60;;;0.60;;
7493;SDS011;3788;49.902;8.590;2023-03-14T13:44:52;0.60;;;0.60;;
7493;SDS011;3788;49.902;8.590;2023-03-14T13:47:21;0.63;;;0.50;;
7493;SDS011;3788;49.902;8.590;2023-03-14T13:49:50;0.87;;;0.60;;
7493;SDS011;3788;49.902;8.590;2023-03-14T13:52:27;1.10;;;0.73;;
7493;SDS011;3788;49.902;8.590;2023-03-14T13:54:55;0.80;;;0.80;;
7493;SDS011;3788;49.902;8.590;2023-03-14T13:57:22;0.83;;;0.83;;
7493;SDS011;3788;49.902;8.590;2023-03-14T13:59:59;0.80;;;0.80;;
7493;SDS011;3788;49.902;8.590;2023-03-14T14:02:30;0.90;;;0.90;;
7493;SDS011;3788;49.902;8.590;2023-03-14T14:04:58;0.90;;;0.90;;
7493;SDS011;3788;49.902;8.590;2023-03-14T14:07:27;1.20;;;1.10;;
7493;SDS011;3788;49.902;8.590;2023-03-14T14:09:54;0.90;;;0.90;;
7493;SDS011;3788;49.902;8.590;2023-03-14T14:12:22;0.90;;;0.90;;
7493;SDS011;3788;49.902;8.590;2023-03-14T14:14:54;0.90;;;0.90;;
7493;SDS011;3788;49.902;8.590;2023-03-14T14:17:29;2.07;;;1.13;;
7493;SDS011;3788;49.902;8.590;2023-03-14T14:19:58;1.23;;;1.10;;
7493;SDS011;3788;49.902;8.590;2023-03-14T14:22:29;0.83;;;0.83;;
7493;SDS011;3788;49.902;8.590;2023-03-14T14:24:57;1.00;;;0.90;;
7493;SDS011;3788;49.902;8.590;2023-03-14T14:27:24;0.80;;;0.80;;
7493;SDS011;3788;49.902;8.590;2023-03-14T14:29:57;0.73;;;0.70;;
7493;SDS011;3788;49.902;8.590;2023-03-14T14:32:25;3.70;;;0.80;;
7493;SDS011;3788;49.902;8.590;2023-03-14T14:34:56;0.80;;;0.80;;
7493;SDS011;3788;49.902;8.590;2023-03-14T14:37:25;0.80;;;0.80;;
7493;SDS011;3788;49.902;8.590;2023-03-14T14:39:55;0.83;;;0.70;;
7493;SDS011;3788;49.902;8.590;2023-03-14T14:42:25;1.03;;;0.83;;
7493;SDS011;3788;49.902;8.590;2023-03-14T14:44:55;1.47;;;0.80;;
7493;SDS011;3788;49.902;8.590;2023-03-14T14:47:24;1.10;;;0.70;;
7493;SDS011;3788;49.902;8.590;2023-03-14T14:49:53;1.97;;;0.90;;
7493;SDS011;3788;49.902;8.590;2023-03-14T14:52:31;1.10;;;1.00;;
7493;SDS011;3788;49.902;8.590;2023-03-14T14:55:11;1.77;;;1.00;;
7493;SDS011;3788;49.902;8.590;2023-03-14T14:57:47;1.10;;;1.10;;
7493;SDS011;3788;49.902;8.590;2023-03-14T15:00:18;1.10;;;1.00;;
7493;SDS011;3788;49.902;8.590;2023-03-14T15:02:47;1.70;;;1.60;;
7493;SDS011;3788;49.902;8.590;2023-03-14T15:05:17;1.23;;;1.20;;
7493;SDS011;3788;49.902;8.590;2023-03-14T15:07:45;1.50;;;1.20;;
7493;SDS011;3788;49.902;8.590;2023-03-14T15:10:15;1.53;;;1.00;;
7493;SDS011;3788;49.902;8.590;2023-03-14T15:12:43;1.10;;;1.00;;
7493;SDS011;3788;49.902;8.590;2023-03-14T15:15:10;1.00;;;0.90;;
7493;SDS011;3788;49.902;8.590;2023-03-14T15:17:37;1.00;;;1.00;;
7493;SDS011;3788;49.902;8.590;2023-03-14T15:20:04;1.00;;;1.00;;
7493;SDS011;3788;49.902;8.590;2023-03-14T15:22:35;1.60;;;0.90;;
7493;SDS011;3788;49.902;8.590;2023-03-14T15:25:02;1.47;;;1.20;;
7493;SDS011;3788;49.902;8.590;2023-03-14T15:27:30;1.67;;;1.43;;
7493;SDS011;3788;49.902;8.590;2023-03-14T15:29:57;1.40;;;1.30;;
7493;SDS011;3788;49.902;8.590;2023-03-14T15:32:25;1.00;;;1.00;;
7493;SDS011;3788;49.902;8.590;2023-03-14T15:34:53;1.10;;;1.00;;
7493;SDS011;3788;49.902;8.590;2023-03-14T15:37:20;1.37;;;0.80;;
7493;SDS011;3788;49.902;8.590;2023-03-14T15:39:48;1.00;;;0.97;;
7493;SDS011;3788;49.902;8.590;2023-03-14T15:42:15;1.87;;;1.20;;